Rechercher aéroport 
image banner adimage banner adimage banner ad
image banner ad

3CA1 - Newport Beach Police

Situé à Newport Beach, United States

ICAO - 3CA1, IATA -

Données fournies par Airmate  

Information générale

Coordonnées: N33°37'23" W117°52'49"
Élévation : 156 feet MSL.
Variation magnétique : 14° East
Voir autres Aéroports à California

Données opérationnelles

Special qualification required
Heure actuelle UTC:
Heure actuelle locale:
METAR: KSNA 292053Z 23007KT 10SM FEW055 FEW080 FEW240 28/16 A2988 RMK AO2 SLP117 T02830161 57013
TAF: KSNA 291733Z 2918/3018 22010KT P6SM FEW010 SCT200 FM300200 VRB05KT P6SM FEW200 TEMPO 3009/3011 BKN010 FM301100 VRB04KT 5SM BR BKN009 FM301500 VRB04KT P6SM SCT010 SCT150
Voir NOTAMs / SUP AIP / TFR affectant cet aéroport [VIEW]
Fréquences de communication: [VIEW]

Pistes:

Coordonnées de l'aéroport

Adresse: Newport Beach United States

Vue satellite de 3CA1